Accueil
METAR-TAF:

METAR-TAF

Aéroports :

Annecy, France

Aéroport d'Annecy Haute-Savoie Mont-Blanc

latitude: 45-55-45N, longitude: 006-05-56E, altitude: 463 m

Observation

Le bulletin a été fait il y a 23 minutes, à 09:30 UTC
Vent 3 kt de direction variable
Température 25°C
Humidité 61%
Pression 1021 hPa
Visibilité 10 km ou plus
pas de nuages en-dessous de 1500 mètres et pas de cumulonimbus.

METAR: LFLP 170930Z AUTO VRB03KT CAVOK 25/17 Q1021 NOSIG

Heure: 11:53 (09:53 UTC)

Prévision

Le bulletin a été fait il y a 1 heure et 53 minutes, à 08:00 UTC
Prévision valable du 17 à 09 UTC au 18 à 09 UTC
Vent 5 kt de ouest/sud-ouest
Visibilité 10 km ou plus
pas de nuages en-dessous de 1500 mètres et pas de cumulonimbus.
Evoluant progressivement
du 17 à 18 UTC au 17 à 20 UTC
Vent 3 kt de direction variable

TAF: LFLP 170800Z 1709/1809 24005KT CAVOK BECMG 1718/1720 VRB03KT

Observations et prévisions météorologiques de plus de 4000 aéroports (messages METAR et TAF).

Les stations disponibles sont représentées par des disques jaunes et rouges sur la carte.

Passer la souris dessus pour voir le nom de la station.

Cliquer dessus pour voir les observations et prévisions météorologiques.

Pour changer de carte: cliquez sur les boutons verts avec une croix noire pour zoomer, sur le bouton vert avec un tiret pour effectuer un zoom arrière, ou sur les flèches vertes pour les cartes adjacentes.


METAR-TAF: